Time;durP1;ratioP1;P1;durP2;ratioP2;P2;SDS_P1;SDS_P2;PMS_P1;PMS_P2;Temp;Humidity;BMP_temperature;BMP_pressure;BME280_temperature;BME280_humidity;BME280_pressure;Samples;Min_cycle;Max_cycle;Signal;HPM_P1;HPM_P2
2021/03/28 00:01:00;;;;;;;19.55;5.95;;;4.30;85.00;;;;;;4908638;29;20532;-58
2021/03/28 00:03:39;;;;;;;14.90;5.03;;;4.30;84.90;;;;;;4908017;29;20082;-58
2021/03/28 00:06:14;;;;;;;18.35;6.38;;;4.30;85.20;;;;;;4906920;29;20056;-57
2021/03/28 00:09:00;;;;;;;20.70;5.38;;;4.30;86.30;;;;;;4904193;29;20638;-59
2021/03/28 00:11:35;;;;;;;22.40;6.07;;;4.30;86.00;;;;;;4907462;29;20060;-57
2021/03/28 00:14:04;;;;;;;19.90;5.10;;;4.50;85.70;;;;;;4909233;29;20056;-58
2021/03/28 00:16:46;;;;;;;18.60;5.60;;;4.50;85.80;;;;;;4924650;29;20051;-59
2021/03/28 00:19:24;;;;;;;22.10;5.63;;;4.50;86.40;;;;;;4926451;29;20047;-58
2021/03/28 00:21:58;;;;;;;19.48;5.57;;;4.50;86.70;;;;;;4926909;29;20142;-59
2021/03/28 00:24:34;;;;;;;19.17;5.70;;;4.50;86.70;;;;;;4926239;29;20059;-57
2021/03/28 00:27:19;;;;;;;19.80;6.80;;;4.50;86.20;;;;;;4926081;29;20543;-58
2021/03/28 00:29:45;;;;;;;20.13;6.35;;;4.50;86.10;;;;;;4927138;29;20055;-58
2021/03/28 00:32:21;;;;;;;20.02;5.78;;;4.60;86.50;;;;;;4992732;28;20484;-59
2021/03/28 00:35:05;;;;;;;15.10;5.85;;;4.50;87.00;;;;;;5023804;28;20056;-58
2021/03/28 00:37:34;;;;;;;23.55;6.78;;;4.40;87.80;;;;;;5026174;28;20054;-57
2021/03/28 00:40:12;;;;;;;18.20;6.68;;;4.40;88.20;;;;;;5024527;28;20053;-58
2021/03/28 00:42:46;;;;;;;16.08;6.13;;;4.50;87.60;;;;;;5026030;28;20061;-57
2021/03/28 00:45:29;;;;;;;18.40;6.43;;;4.60;87.60;;;;;;5025047;28;20049;-57
2021/03/28 00:48:14;;;;;;;27.77;6.90;;;4.70;87.70;;;;;;5027915;28;20520;-58
2021/03/28 00:50:47;;;;;;;20.58;5.60;;;4.80;87.60;;;;;;5025359;28;20172;-58
2021/03/28 00:53:31;;;;;;;21.80;5.90;;;4.70;88.00;;;;;;5024598;28;20045;-58
2021/03/28 00:56:02;;;;;;;24.80;6.50;;;4.70;87.60;;;;;;5025780;28;20050;-58
2021/03/28 00:58:41;;;;;;;23.58;6.20;;;4.80;88.00;;;;;;5026832;28;20467;-58
2021/03/28 01:01:27;;;;;;;20.45;6.47;;;4.80;88.30;;;;;;5025668;28;20048;-58
2021/03/28 01:04:07;;;;;;;23.17;6.88;;;4.80;88.40;;;;;;5026050;28;20080;-57
2021/03/28 01:06:41;;;;;;;14.90;5.50;;;4.80;88.20;;;;;;5025485;28;20132;-58
2021/03/28 01:09:38;;;;;;;22.27;6.10;;;4.80;88.70;;;;;;5025983;28;20057;-58
2021/03/28 01:12:42;;;;;;;23.02;6.07;;;4.80;88.70;;;;;;5025849;28;20053;-59
2021/03/28 01:15:42;;;;;;;22.90;6.30;;;4.90;88.60;;;;;;5023143;28;20080;-58
2021/03/28 01:18:26;;;;;;;14.68;6.55;;;5.00;88.40;;;;;;5025480;28;20057;-58
2021/03/28 01:21:04;;;;;;;20.83;6.60;;;5.00;88.40;;;;;;5025667;28;20041;-58
2021/03/28 01:23:35;;;;;;;22.27;6.30;;;5.00;88.60;;;;;;5025685;28;20394;-58
2021/03/28 01:26:24;;;;;;;26.77;7.18;;;5.00;88.90;;;;;;5025177;28;20212;-58
2021/03/28 01:28:50;;;;;;;21.85;6.32;;;5.00;88.60;;;;;;5026051;28;20049;-58
2021/03/28 01:31:53;;;;;;;22.15;6.05;;;5.00;88.80;;;;;;5025481;28;20060;-58
2021/03/28 01:34:26;;;;;;;23.25;7.82;;;4.90;89.00;;;;;;5023424;28;20127;-58
2021/03/28 01:36:55;;;;;;;18.60;6.53;;;4.80;89.70;;;;;;5025817;28;20457;-59
2021/03/28 01:39:36;;;;;;;21.27;6.43;;;4.80;90.00;;;;;;5026629;28;20434;-58
2021/03/28 01:42:14;;;;;;;21.50;6.15;;;4.80;89.50;;;;;;5031159;28;20045;-58
2021/03/28 01:44:52;;;;;;;20.20;6.55;;;4.80;90.00;;;;;;5029262;28;20044;-58
2021/03/28 01:47:34;;;;;;;20.85;6.18;;;4.80;90.00;;;;;;5024880;28;20537;-58
2021/03/28 01:50:09;;;;;;;19.73;5.75;;;4.80;89.70;;;;;;5022348;28;20053;-59
2021/03/28 01:53:05;;;;;;;15.90;5.68;;;4.80;89.70;;;;;;5029004;28;20144;-58
2021/03/28 01:55:42;;;;;;;16.98;5.68;;;4.80;90.00;;;;;;5027268;28;20053;-58
2021/03/28 01:58:23;;;;;;;20.10;6.55;;;4.80;89.80;;;;;;5026828;28;20053;-58
2021/03/28 02:01:10;;;;;;;19.05;6.20;;;4.80;89.90;;;;;;5026352;28;20539;-58
2021/03/28 02:04:04;;;;;;;17.90;5.82;;;4.80;89.90;;;;;;5028879;28;20148;-58
2021/03/28 02:06:42;;;;;;;16.13;6.70;;;4.70;89.50;;;;;;5027928;28;20403;-58
2021/03/28 02:09:25;;;;;;;16.20;5.97;;;4.70;89.80;;;;;;5027604;28;20069;-58
2021/03/28 02:12:00;;;;;;;22.75;5.70;;;4.60;90.00;;;;;;5027687;28;20183;-58
2021/03/28 02:14:45;;;;;;;17.52;5.40;;;4.60;90.10;;;;;;5029117;28;20049;-58
2021/03/28 02:17:40;;;;;;;22.75;6.32;;;4.60;90.30;;;;;;5026693;28;20068;-58
2021/03/28 02:20:09;;;;;;;22.08;7.20;;;4.50;90.20;;;;;;5025621;28;20065;-58
2021/03/28 02:22:51;;;;;;;17.15;5.63;;;4.50;90.30;;;;;;5028670;28;20053;-58
2021/03/28 02:25:24;;;;;;;18.02;6.63;;;4.50;90.40;;;;;;5026100;28;20643;-58
2021/03/28 02:28:30;;;;;;;27.65;6.28;;;4.50;90.20;;;;;;5031719;28;20049;-59
2021/03/28 02:31:48;;;;;;;24.38;6.25;;;4.50;90.20;;;;;;5014051;28;20053;-59
2021/03/28 02:34:31;;;;;;;18.85;6.07;;;4.60;90.40;;;;;;4955048;28;20623;-58
2021/03/28 02:37:06;;;;;;;25.35;5.93;;;4.60;90.20;;;;;;4958273;28;20078;-58
2021/03/28 02:39:49;;;;;;;22.05;6.30;;;4.70;90.20;;;;;;4954715;28;20047;-58
2021/03/28 02:42:23;;;;;;;17.52;5.60;;;4.70;90.10;;;;;;4956994;28;20153;-58
2021/03/28 02:45:01;;;;;;;20.02;6.35;;;4.70;90.00;;;;;;4957027;28;20050;-58
2021/03/28 02:47:52;;;;;;;18.05;5.85;;;4.80;90.10;;;;;;4958152;28;20193;-58
2021/03/28 02:51:14;;;;;;;18.58;5.50;;;4.80;89.50;;;;;;4957932;28;20062;-58
2021/03/28 02:54:10;;;;;;;16.75;5.80;;;4.90;89.80;;;;;;4927582;29;20489;-57
2021/03/28 02:56:52;;;;;;;22.48;6.90;;;4.90;89.30;;;;;;4927142;29;20074;-57
2021/03/28 02:59:56;;;;;;;22.27;6.50;;;4.90;89.50;;;;;;4927383;29;20649;-57
2021/03/28 03:02:47;;;;;;;26.55;6.30;;;4.90;89.60;;;;;;4925236;29;20055;-58
2021/03/28 03:05:38;;;;;;;25.25;6.30;;;4.90;89.80;;;;;;4926406;29;20056;-58
2021/03/28 03:08:11;;;;;;;22.63;6.50;;;4.90;89.70;;;;;;4946486;28;20046;-58
2021/03/28 03:10:57;;;;;;;19.88;6.25;;;4.90;89.60;;;;;;4966776;28;20054;-58
2021/03/28 03:13:53;;;;;;;18.58;6.68;;;4.90;89.60;;;;;;4966303;28;20047;-58
2021/03/28 03:16:48;;;;;;;18.17;6.18;;;4.90;90.00;;;;;;4961297;28;20488;-58
2021/03/28 03:19:51;;;;;;;17.35;5.82;;;4.90;89.80;;;;;;4965857;28;20105;-58
2021/03/28 03:22:54;;;;;;;19.13;6.63;;;4.90;89.80;;;;;;4965820;28;20055;-58
2021/03/28 03:25:32;;;;;;;19.55;7.35;;;4.90;89.60;;;;;;5017218;28;20494;-58
2021/03/28 03:28:29;;;;;;;17.42;6.13;;;4.90;90.00;;;;;;5026208;28;20055;-58
2021/03/28 03:31:11;;;;;;;18.20;6.65;;;5.00;90.00;;;;;;5026003;28;20057;-58
2021/03/28 03:33:58;;;;;;;16.75;6.60;;;4.90;89.80;;;;;;5027780;28;20053;-59
2021/03/28 03:37:06;;;;;;;22.08;7.90;;;4.90;89.70;;;;;;5008548;28;20143;-56
2021/03/28 03:40:13;;;;;;;14.82;6.47;;;4.90;89.40;;;;;;5026969;28;20053;-56
2021/03/28 03:43:07;;;;;;;21.63;6.25;;;4.90;89.80;;;;;;5022865;28;20081;-56
2021/03/28 03:45:52;;;;;;;17.35;6.38;;;4.90;90.20;;;;;;5027000;28;20049;-56
2021/03/28 03:48:55;;;;;;;21.85;7.07;;;4.90;90.30;;;;;;5023093;28;20049;-56
2021/03/28 03:51:27;;;;;;;;;;;4.80;90.10;;;;;;5026793;28;20052;-57
2021/03/28 03:54:04;;;;;;;24.20;7.07;;;4.80;90.30;;;;;;5026569;28;19925;-58
2021/03/28 03:56:48;;;;;;;20.58;7.57;;;4.80;90.50;;;;;;5026400;28;20211;-56
2021/03/28 03:59:31;;;;;;;20.08;7.07;;;4.80;90.10;;;;;;5026795;28;20053;-56
2021/03/28 04:02:13;;;;;;;;;;;4.80;90.10;;;;;;5026425;28;20049;-56
2021/03/28 04:05:23;;;;;;;16.50;6.65;;;4.70;90.40;;;;;;5031197;28;20023;-56
2021/03/28 04:08:11;;;;;;;22.88;8.60;;;4.70;90.50;;;;;;5025968;28;20112;-56
2021/03/28 04:10:39;;;;;;;21.77;6.20;;;4.70;90.40;;;;;;5026811;28;20045;-56
2021/03/28 04:13:32;;;;;;;17.15;7.43;;;4.70;90.70;;;;;;5027246;28;20049;-56
2021/03/28 04:16:27;;;;;;;18.95;7.47;;;4.70;90.80;;;;;;5026936;28;20046;-56
2021/03/28 04:19:15;;;;;;;23.08;7.43;;;4.70;90.70;;;;;;4960142;28;20451;-56
2021/03/28 04:22:00;;;;;;;19.63;7.60;;;4.60;91.00;;;;;;4965395;28;20078;-56
2021/03/28 04:24:52;;;;;;;18.10;7.18;;;4.60;91.10;;;;;;4966229;28;20055;-57
2021/03/28 04:27:34;;;;;;;16.92;7.25;;;4.60;91.00;;;;;;4966707;28;20902;-57
2021/03/28 04:30:00;;;;;;;20.33;7.53;;;4.60;91.40;;;;;;4964988;28;20082;-57
2021/03/28 04:32:48;;;;;;;23.15;8.00;;;4.60;91.20;;;;;;4964869;28;20047;-57
2021/03/28 04:35:23;;;;;;;20.95;7.28;;;4.60;91.20;;;;;;4964342;28;20911;-57
2021/03/28 04:38:02;;;;;;;25.92;7.70;;;4.50;91.30;;;;;;4963334;28;20047;-57
2021/03/28 04:40:58;;;;;;;19.90;7.05;;;4.50;92.00;;;;;;4963140;28;20508;-57
2021/03/28 04:43:53;;;;;;;20.52;6.65;;;4.50;91.50;;;;;;4964390;28;20623;-57
2021/03/28 04:46:44;;;;;;;19.85;6.70;;;4.50;91.40;;;;;;4964514;28;20058;-57
2021/03/28 04:49:43;;;;;;;18.88;7.32;;;4.40;91.60;;;;;;4965342;28;20058;-57
2021/03/28 04:52:31;;;;;;;17.67;7.03;;;4.40;91.60;;;;;;4964539;28;20054;-57
2021/03/28 04:55:42;;;;;;;26.20;8.05;;;4.40;91.40;;;;;;4974293;28;20077;-57
2021/03/28 04:58:22;;;;;;;20.58;7.70;;;4.30;91.60;;;;;;5005706;28;20069;-56
2021/03/28 05:01:25;;;;;;;22.20;8.02;;;4.30;91.90;;;;;;5006322;28;20136;-57
2021/03/28 05:04:07;;;;;;;21.20;7.18;;;4.30;92.00;;;;;;5005665;28;20045;-57
2021/03/28 05:07:08;;;;;;;19.35;7.95;;;4.30;91.90;;;;;;5006775;28;20046;-57
2021/03/28 05:09:54;;;;;;;17.40;8.30;;;4.30;91.80;;;;;;5006417;28;20132;-57
2021/03/28 05:12:34;;;;;;;16.58;9.15;;;4.30;91.90;;;;;;5004238;28;20046;-57
2021/03/28 05:15:10;;;;;;;23.52;8.15;;;4.30;92.00;;;;;;5006504;28;20045;-57
2021/03/28 05:18:13;;;;;;;24.33;8.45;;;4.30;92.20;;;;;;5006894;28;20495;-57
2021/03/28 05:20:49;;;;;;;19.67;9.15;;;4.40;92.10;;;;;;5005910;28;20054;-57
2021/03/28 05:23:40;;;;;;;18.63;8.43;;;4.30;92.00;;;;;;5009467;28;20477;-57
2021/03/28 05:26:35;;;;;;;21.00;8.15;;;4.40;92.00;;;;;;5010144;28;20137;-57
2021/03/28 05:29:21;;;;;;;23.92;8.57;;;4.40;92.20;;;;;;5011229;28;20561;-57
2021/03/28 05:32:12;;;;;;;23.80;7.80;;;4.40;92.10;;;;;;5009370;28;20054;-57
2021/03/28 05:34:57;;;;;;;20.90;8.60;;;4.50;92.00;;;;;;5009793;28;20092;-57
2021/03/28 05:37:56;;;;;;;20.08;7.88;;;4.50;92.10;;;;;;5008526;28;20235;-57
2021/03/28 05:40:25;;;;;;;21.05;7.80;;;4.70;92.10;;;;;;5009658;28;20056;-57
2021/03/28 05:43:17;;;;;;;18.13;7.72;;;4.80;92.10;;;;;;5009627;28;20062;-57
2021/03/28 05:46:00;;;;;;;20.20;8.23;;;4.90;91.80;;;;;;5009480;28;20046;-58
2021/03/28 05:48:50;;;;;;;24.25;7.75;;;5.00;91.80;;;;;;5006929;28;20437;-58
2021/03/28 05:51:24;;;;;;;22.38;8.25;;;5.10;91.90;;;;;;5009855;28;20049;-58
2021/03/28 05:54:25;;;;;;;18.98;8.13;;;5.20;91.60;;;;;;5005841;28;20049;-56
2021/03/28 05:57:29;;;;;;;25.70;7.55;;;5.10;91.70;;;;;;5020095;28;20053;-57
2021/03/28 06:00:40;;;;;;;20.83;7.30;;;5.20;91.70;;;;;;5031751;28;20130;-58
2021/03/28 06:03:38;;;;;;;20.45;6.75;;;5.30;91.70;;;;;;5029642;28;20046;-58
2021/03/28 06:07:02;;;;;;;20.65;6.57;;;5.40;91.60;;;;;;5026972;28;20490;-58
2021/03/28 06:09:49;;;;;;;19.55;6.55;;;5.50;91.60;;;;;;4958727;28;20066;-58
2021/03/28 06:12:41;;;;;;;15.50;5.82;;;5.80;91.60;;;;;;4960925;28;20157;-58
2021/03/28 06:15:41;;;;;;;23.05;6.50;;;6.00;91.00;;;;;;4961968;28;20055;-57
2021/03/28 06:18:31;;;;;;;17.00;6.55;;;6.10;90.80;;;;;;4958307;28;20054;-57
2021/03/28 06:21:42;;;;;;;18.05;5.57;;;6.30;90.40;;;;;;4959848;28;20161;-57
2021/03/28 06:24:10;;;;;;;44.60;23.88;;;6.40;90.20;;;;;;4932049;29;20094;-49
2021/03/28 06:26:59;;;;;;;63.28;39.72;;;6.50;89.80;;;;;;4935748;29;20047;-47
2021/03/28 06:29:43;;;;;;;27.77;15.80;;;6.50;89.50;;;;;;4928105;29;20047;-48
2021/03/28 06:32:37;;;;;;;22.27;11.95;;;6.60;89.20;;;;;;4931222;29;20066;-54
2021/03/28 06:35:33;;;;;;;25.05;9.90;;;6.60;88.60;;;;;;4925591;29;20083;-44
2021/03/28 06:38:18;;;;;;;15.27;6.90;;;6.80;88.00;;;;;;4928244;29;20055;-42
2021/03/28 06:41:04;;;;;;;18.10;7.43;;;7.00;87.60;;;;;;4931146;29;20055;-43
2021/03/28 06:43:45;;;;;;;14.82;5.15;;;7.20;87.00;;;;;;4930102;29;20059;-43
2021/03/28 06:46:16;;;;;;;19.67;10.60;;;7.40;85.70;;;;;;4949120;28;20042;-53
2021/03/28 06:49:01;;;;;;;20.25;8.10;;;7.60;84.50;;;;;;4950836;28;20064;-47
2021/03/28 06:51:46;;;;;;;15.32;7.40;;;7.70;84.40;;;;;;4954731;28;20058;-46
2021/03/28 06:54:35;;;;;;;19.80;6.57;;;7.70;83.70;;;;;;4962401;28;20061;-46
2021/03/28 06:57:39;;;;;;;14.70;5.10;;;7.70;84.20;;;;;;4935889;28;20056;-48
2021/03/28 07:00:32;;;;;;;18.25;4.43;;;7.70;83.80;;;;;;4938852;28;20067;-45
2021/03/28 07:03:33;;;;;;;13.10;3.35;;;7.80;83.90;;;;;;4954679;28;20055;-47
2021/03/28 07:06:26;;;;;;;13.43;4.47;;;7.90;82.50;;;;;;4960345;28;20145;-47
2021/03/28 07:09:10;;;;;;;17.80;4.13;;;8.00;82.60;;;;;;4956724;28;20074;-49
2021/03/28 07:11:47;;;;;;;11.35;4.30;;;8.10;82.90;;;;;;4960675;28;20058;-47
2021/03/28 07:14:44;;;;;;;17.42;4.68;;;8.10;81.50;;;;;;4955415;28;20114;-48
2021/03/28 07:17:27;;;;;;;11.68;3.78;;;8.00;82.00;;;;;;4961180;28;20062;-48
2021/03/28 07:20:07;;;;;;;18.10;10.45;;;8.00;82.80;;;;;;4956398;28;20481;-47
2021/03/28 07:22:52;;;;;;;21.67;11.80;;;8.00;83.10;;;;;;4951034;28;20065;-45
2021/03/28 07:25:47;;;;;;;15.27;5.18;;;8.00;82.50;;;;;;4950208;28;20201;-48
2021/03/28 07:29:00;;;;;;;12.07;5.40;;;8.00;83.20;;;;;;4914772;29;20079;-49
2021/03/28 07:31:40;;;;;;;12.85;4.13;;;8.10;82.80;;;;;;4898852;29;20080;-49
2021/03/28 07:34:14;;;;;;;12.05;4.53;;;8.10;83.00;;;;;;4901445;29;20509;-48
2021/03/28 07:37:09;;;;;;;15.02;5.35;;;8.20;82.30;;;;;;4908083;29;20100;-47
2021/03/28 07:40:11;;;;;;;28.30;17.45;;;8.30;82.10;;;;;;4908627;29;20063;-50
2021/03/28 07:42:37;;;;;;;;;;;8.50;81.90;;;;;;4909344;29;20112;-49
2021/03/28 07:45:54;;;;;;;13.75;4.88;;;8.40;81.10;;;;;;4892274;29;19927;-51
2021/03/28 07:48:35;;;;;;;14.85;5.05;;;8.40;80.90;;;;;;4889789;29;20148;-49
2021/03/28 07:51:25;;;;;;;11.30;4.40;;;8.50;81.10;;;;;;4894734;29;20509;-49
2021/03/28 07:54:28;;;;;;;11.75;3.88;;;8.50;82.50;;;;;;4889514;29;20084;-49
2021/03/28 07:57:15;;;;;;;11.90;3.70;;;8.50;81.50;;;;;;4889070;29;20720;-47
2021/03/28 08:00:18;;;;;;;20.05;4.10;;;8.60;81.80;;;;;;4890220;29;20163;-50
2021/03/28 08:03:05;;;;;;;13.18;3.92;;;8.80;80.80;;;;;;4890069;29;20052;-48
2021/03/28 08:05:59;;;;;;;10.50;3.38;;;9.00;80.00;;;;;;4916987;29;20102;-47
2021/03/28 08:08:44;;;;;;;11.50;3.08;;;9.10;79.20;;;;;;4928957;28;20119;-52
2021/03/28 08:11:35;;;;;;;26.60;9.70;;;9.40;79.10;;;;;;4929058;29;20133;-48
2021/03/28 08:14:38;;;;;;;14.13;4.67;;;9.50;78.60;;;;;;4926401;29;20056;-55
2021/03/28 08:17:37;;;;;;;14.57;4.43;;;9.70;77.70;;;;;;4930140;29;20142;-56
2021/03/28 08:20:27;;;;;;;15.73;4.53;;;10.30;76.30;;;;;;4927413;29;20086;-57
2021/03/28 08:23:34;;;;;;;12.38;4.05;;;10.20;74.70;;;;;;4942919;28;20053;-56
2021/03/28 08:26:40;;;;;;;9.25;3.95;;;10.10;75.40;;;;;;5027918;28;20099;-57
2021/03/28 08:29:17;;;;;;;10.68;3.30;;;10.30;75.40;;;;;;5027424;28;20073;-56
2021/03/28 08:32:13;;;;;;;16.05;4.30;;;10.60;73.80;;;;;;5021674;28;20107;-56
2021/03/28 08:35:00;;;;;;;12.05;3.83;;;10.70;73.40;;;;;;5018437;28;20498;-57
2021/03/28 08:37:32;;;;;;;10.85;3.35;;;10.60;73.70;;;;;;5030029;28;20044;-56
2021/03/28 08:40:22;;;;;;;20.48;7.28;;;10.50;73.90;;;;;;5009540;28;20049;-56
2021/03/28 08:43:16;;;;;;;14.20;5.88;;;10.40;74.00;;;;;;5027935;28;20140;-53
2021/03/28 08:46:09;;;;;;;12.00;3.47;;;10.50;73.00;;;;;;5027487;28;20053;-52
2021/03/28 08:48:49;;;;;;;14.48;4.25;;;10.90;75.00;;;;;;5028889;28;20125;-56
2021/03/28 08:51:45;;;;;;;13.73;3.85;;;11.00;73.00;;;;;;5026982;28;20061;-49
2021/03/28 08:54:40;;;;;;;9.73;3.35;;;11.00;72.90;;;;;;5026840;28;20049;-53
2021/03/28 08:57:28;;;;;;;13.07;3.78;;;10.80;73.50;;;;;;5027365;28;20099;-51
2021/03/28 09:00:24;;;;;;;11.57;3.50;;;10.70;72.30;;;;;;5031505;28;20049;-54
2021/03/28 09:03:35;;;;;;;12.23;3.03;;;10.60;72.40;;;;;;5031680;28;20076;-51
2021/03/28 09:06:14;;;;;;;10.02;3.08;;;10.60;72.40;;;;;;4974692;28;20078;-48
2021/03/28 09:08:56;;;;;;;10.02;3.67;;;10.70;72.70;;;;;;4972923;28;20066;-49
2021/03/28 09:11:28;;;;;;;8.98;3.00;;;11.30;72.10;;;;;;4968635;28;20125;-48
2021/03/28 09:14:45;;;;;;;12.68;3.25;;;11.90;70.30;;;;;;4968121;28;20063;-49
2021/03/28 09:17:31;;;;;;;12.57;2.97;;;12.40;67.60;;;;;;4968171;28;20530;-50
2021/03/28 09:20:30;;;;;;;7.85;2.50;;;12.30;68.10;;;;;;4968837;28;20215;-50
2021/03/28 09:23:18;;;;;;;9.45;2.95;;;12.30;66.60;;;;;;4973821;28;20199;-52
2021/03/28 09:25:59;;;;;;;9.23;2.47;;;12.50;67.00;;;;;;4967442;28;20047;-49
2021/03/28 09:28:34;;;;;;;14.05;3.53;;;12.30;65.50;;;;;;4967502;28;20104;-50
2021/03/28 09:31:22;;;;;;;8.23;3.25;;;12.60;65.90;;;;;;4967135;28;20055;-48
2021/03/28 09:34:12;;;;;;;9.63;2.88;;;13.00;63.60;;;;;;4960706;28;20050;-50
2021/03/28 09:37:14;;;;;;;11.95;3.20;;;13.20;60.80;;;;;;4970716;28;20073;-49
2021/03/28 09:40:09;;;;;;;9.73;2.92;;;13.50;59.50;;;;;;4967574;28;20058;-50
2021/03/28 09:43:02;;;;;;;8.88;2.70;;;13.90;58.80;;;;;;4967761;28;20055;-48
2021/03/28 09:45:45;;;;;;;10.73;2.53;;;14.10;58.80;;;;;;4966737;28;20092;-51
2021/03/28 09:48:22;;;;;;;7.35;2.38;;;14.40;56.00;;;;;;4970310;28;20058;-48
2021/03/28 09:51:20;;;;;;;11.57;3.20;;;14.20;55.30;;;;;;4964127;28;20515;-51
2021/03/28 09:54:07;;;;;;;9.32;2.67;;;14.00;56.60;;;;;;5030719;28;20144;-49
2021/03/28 09:56:42;;;;;;;8.05;2.35;;;13.80;57.70;;;;;;5028442;28;20103;-52
2021/03/28 09:59:30;;;;;;;8.50;2.70;;;13.90;54.50;;;;;;5027715;28;20633;-51
2021/03/28 10:02:16;;;;;;;10.13;2.53;;;14.20;55.80;;;;;;5028435;28;20098;-50
2021/03/28 10:05:12;;;;;;;9.38;2.85;;;14.30;55.20;;;;;;5029498;28;21294;-51
2021/03/28 10:07:46;;;;;;;10.18;2.90;;;14.10;53.70;;;;;;5032363;28;20481;-48
2021/03/28 10:10:49;;;;;;;8.43;2.55;;;13.70;54.30;;;;;;5034854;28;20076;-52
2021/03/28 10:13:31;;;;;;;10.57;2.35;;;13.50;56.10;;;;;;4947251;29;20083;-51
2021/03/28 10:16:11;;;;;;;11.00;3.20;;;13.00;56.90;;;;;;4946757;29;20521;-49
2021/03/28 10:19:07;;;;;;;11.35;3.35;;;12.80;57.80;;;;;;4947349;29;20039;-50
2021/03/28 10:21:45;;;;;;;6.50;2.45;;;12.70;57.80;;;;;;4942591;28;20055;-51
2021/03/28 10:24:32;;;;;;;9.40;2.88;;;12.60;59.20;;;;;;4944510;28;20535;-50
2021/03/28 10:27:23;;;;;;;9.43;2.67;;;12.50;59.20;;;;;;4930774;29;20059;-49
2021/03/28 10:30:18;;;;;;;10.82;2.63;;;12.40;58.80;;;;;;4943974;29;20051;-50
2021/03/28 10:33:05;;;;;;;9.73;2.95;;;12.50;59.60;;;;;;4946643;29;20260;-49
2021/03/28 10:35:53;;;;;;;8.57;2.97;;;12.50;59.90;;;;;;4945788;28;20063;-53
2021/03/28 10:38:43;;;;;;;11.38;3.13;;;12.70;59.50;;;;;;4944429;29;20357;-51
2021/03/28 10:41:29;;;;;;;8.10;2.80;;;12.50;59.30;;;;;;4946890;29;20051;-49
2021/03/28 10:44:17;;;;;;;11.25;3.55;;;12.10;62.70;;;;;;4943805;29;20047;-49
2021/03/28 10:46:53;;;;;;;9.80;3.30;;;11.70;66.00;;;;;;4963171;28;20053;-52
2021/03/28 10:50:10;;;;;;;11.43;3.13;;;11.40;68.80;;;;;;5025420;28;20056;-50
2021/03/28 10:52:55;;;;;;;13.38;4.38;;;11.20;70.70;;;;;;5032267;28;20045;-55
2021/03/28 10:55:58;;;;;;;9.45;3.25;;;11.00;71.50;;;;;;5027094;28;20072;-55
2021/03/28 10:58:33;;;;;;;13.30;4.10;;;10.70;72.00;;;;;;5027591;28;20051;-49
2021/03/28 11:01:14;;;;;;;11.35;3.95;;;10.60;72.60;;;;;;5026009;28;20045;-54
2021/03/28 11:03:51;;;;;;;12.63;4.20;;;10.50;74.90;;;;;;5029762;28;20136;-56
2021/03/28 11:06:49;;;;;;;13.57;3.78;;;10.30;76.70;;;;;;5029297;28;20128;-52
2021/03/28 11:09:43;;;;;;;11.35;3.38;;;10.30;78.60;;;;;;5027940;28;20490;-49
2021/03/28 11:12:43;;;;;;;13.40;3.22;;;10.30;78.10;;;;;;5009782;28;20049;-50
2021/03/28 11:15:38;;;;;;;14.73;3.63;;;10.30;77.70;;;;;;5027938;28;20053;-50
2021/03/28 11:18:33;;;;;;;10.30;3.33;;;10.30;79.10;;;;;;5027577;28;20391;-49
2021/03/28 11:21:39;;;;;;;10.48;3.28;;;10.30;78.80;;;;;;5027242;28;20140;-51
2021/03/28 11:24:28;;;;;;;10.63;3.28;;;10.30;77.50;;;;;;5027287;28;20042;-52
2021/03/28 11:27:19;;;;;;;14.02;3.85;;;10.30;77.80;;;;;;5030572;28;20420;-52
2021/03/28 11:30:13;;;;;;;11.20;3.40;;;10.40;77.90;;;;;;5028028;28;20081;-50
2021/03/28 11:33:14;;;;;;;10.75;3.45;;;10.40;77.80;;;;;;5027911;28;20180;-52
2021/03/28 11:36:05;;;;;;;11.20;3.17;;;10.30;77.40;;;;;;5028400;28;20075;-51
2021/03/28 11:38:58;;;;;;;10.35;3.40;;;10.30;77.60;;;;;;5020136;28;20111;-52
2021/03/28 11:41:26;;;;;;;;;;;10.20;78.90;;;;;;5027475;28;20053;-48
2021/03/28 11:43:59;;;;;;;15.40;3.92;;;10.20;79.60;;;;;;5030810;28;19932;-51
2021/03/28 11:46:53;;;;;;;10.35;3.72;;;10.10;79.30;;;;;;5027224;28;20054;-49
2021/03/28 11:49:22;;;;;;;12.88;4.03;;;10.20;80.60;;;;;;5027261;28;20076;-51
2021/03/28 11:51:52;;;;;;;14.02;4.10;;;10.30;79.90;;;;;;5031960;28;20045;-49
2021/03/28 11:54:23;;;;;;;14.02;3.75;;;10.30;81.10;;;;;;5026325;28;20068;-51
2021/03/28 11:56:56;;;;;;;13.73;4.63;;;10.30;81.70;;;;;;5026576;28;20085;-47
2021/03/28 11:59:27;;;;;;;9.77;3.80;;;10.20;81.50;;;;;;5008583;28;20045;-49
2021/03/28 12:01:56;;;;;;;13.07;4.35;;;10.10;81.60;;;;;;5029360;28;20053;-50
2021/03/28 12:04:27;;;;;;;8.40;4.03;;;10.10;83.30;;;;;;5033086;28;20119;-48
2021/03/28 12:07:33;;;;;;;12.00;4.30;;;10.10;82.70;;;;;;5031783;28;20667;-52
2021/03/28 12:10:03;;;;;;;15.77;4.78;;;10.00;83.70;;;;;;5026665;28;20088;-53
2021/03/28 12:12:40;;;;;;;16.63;5.15;;;10.00;83.50;;;;;;5027374;28;20073;-47
2021/03/28 12:15:46;;;;;;;13.20;4.85;;;10.00;83.80;;;;;;5029756;28;20410;-53
2021/03/28 12:18:24;;;;;;;12.25;4.70;;;9.90;83.90;;;;;;5025956;28;20053;-51
2021/03/28 12:21:03;;;;;;;13.80;5.50;;;9.80;86.10;;;;;;5026293;28;20045;-53
2021/03/28 12:23:42;;;;;;;15.50;5.72;;;9.80;87.00;;;;;;5026120;28;20555;-51
2021/03/28 12:26:14;;;;;;;15.55;5.40;;;9.70;87.10;;;;;;5025933;28;20045;-48
2021/03/28 12:28:46;;;;;;;;;;;9.70;87.50;;;;;;5026723;28;20054;-51
2021/03/28 12:31:31;;;;;;;;;;;9.60;88.80;;;;;;5026169;28;19947;-48
2021/03/28 12:34:30;;;;;;;16.83;5.22;;;9.60;89.70;;;;;;5026349;28;20423;-49
2021/03/28 12:37:08;;;;;;;15.52;6.28;;;9.60;89.50;;;;;;5028557;28;20057;-50
2021/03/28 12:39:45;;;;;;;10.52;5.70;;;9.60;88.80;;;;;;5025913;28;20053;-47
2021/03/28 12:42:43;;;;;;;13.95;6.15;;;9.50;89.70;;;;;;5030945;28;20049;-45
2021/03/28 12:45:09;;;;;;;17.40;5.45;;;9.50;90.20;;;;;;5009799;28;20055;-46
2021/03/28 12:47:52;;;;;;;14.50;5.50;;;9.60;90.00;;;;;;5029933;28;20076;-50
2021/03/28 12:50:35;;;;;;;14.10;5.32;;;9.50;89.00;;;;;;5027032;28;20057;-47
2021/03/28 12:53:01;;;;;;;12.25;4.60;;;9.60;90.20;;;;;;5026537;28;20056;-51
2021/03/28 12:55:30;;;;;;;15.25;5.75;;;9.60;88.20;;;;;;5028237;28;20049;-47
2021/03/28 12:58:11;;;;;;;13.20;5.03;;;9.60;89.30;;;;;;5025252;28;20053;-48
2021/03/28 13:00:40;;;;;;;14.98;5.60;;;9.60;88.70;;;;;;5006292;28;20068;-45
2021/03/28 13:03:25;;;;;;;17.45;6.28;;;9.60;89.90;;;;;;5006649;28;20520;-52
2021/03/28 13:06:05;;;;;;;16.20;5.38;;;9.70;89.60;;;;;;5013310;28;20046;-46
2021/03/28 13:09:01;;;;;;;15.80;5.60;;;9.70;89.00;;;;;;5006850;28;20054;-51
2021/03/28 13:11:45;;;;;;;13.80;5.60;;;9.70;88.70;;;;;;4964478;28;20455;-47
2021/03/28 13:14:43;;;;;;;15.77;6.07;;;9.80;89.40;;;;;;4966996;28;20114;-46
2021/03/28 13:17:15;;;;;;;12.77;4.63;;;9.90;88.00;;;;;;4964646;28;20082;-46
2021/03/28 13:20:20;;;;;;;15.25;4.28;;;9.90;87.20;;;;;;4964096;28;20065;-46
2021/03/28 13:22:48;;;;;;;14.85;5.10;;;10.00;85.70;;;;;;4961009;28;20501;-45
2021/03/28 13:25:19;;;;;;;46.85;32.95;;;10.00;87.20;;;;;;4971376;28;20049;-52
2021/03/28 13:28:00;;;;;;;15.07;6.72;;;10.10;86.70;;;;;;4968282;28;20146;-47
2021/03/28 13:30:32;;;;;;;15.95;7.00;;;10.10;85.40;;;;;;4966995;28;20062;-44
2021/03/28 13:33:22;;;;;;;19.50;5.95;;;10.10;85.30;;;;;;4966446;28;20482;-45
2021/03/28 13:35:53;;;;;;;11.75;4.35;;;10.10;85.00;;;;;;4966196;28;20125;-50
2021/03/28 13:38:25;;;;;;;14.57;5.28;;;10.10;83.50;;;;;;4972922;28;20109;-46
2021/03/28 13:40:58;;;;;;;36.70;24.48;;;10.20;84.40;;;;;;4961507;28;20074;-47
2021/03/28 13:43:31;;;;;;;19.65;9.13;;;10.20;84.80;;;;;;4968737;28;20506;-49
2021/03/28 13:46:14;;;;;;;16.58;6.88;;;10.10;85.90;;;;;;4971726;28;20046;-46
2021/03/28 13:48:40;;;;;;;15.43;7.05;;;10.00;85.90;;;;;;4986497;28;20058;-46
2021/03/28 13:51:25;;;;;;;13.68;4.90;;;10.00;85.30;;;;;;5025672;28;20075;-45
2021/03/28 13:54:05;;;;;;;17.42;5.25;;;10.00;86.00;;;;;;5017991;28;20128;-47
2021/03/28 13:56:50;;;;;;;20.20;5.55;;;10.00;86.00;;;;;;5029232;28;20054;-49
2021/03/28 13:59:28;;;;;;;15.18;5.00;;;10.10;85.60;;;;;;5030105;28;20053;-50
2021/03/28 14:02:12;;;;;;;15.98;8.10;;;10.10;85.80;;;;;;5028997;28;20057;-48
2021/03/28 14:04:50;;;;;;;25.98;12.98;;;10.20;85.20;;;;;;5024075;28;20068;-49
2021/03/28 14:07:56;;;;;;;17.98;6.32;;;10.10;85.10;;;;;;5012521;28;20046;-51
2021/03/28 14:10:34;;;;;;;16.23;5.40;;;10.20;83.80;;;;;;4932785;29;20147;-52
2021/03/28 14:13:18;;;;;;;15.65;5.05;;;10.20;84.10;;;;;;4962020;28;20057;-47
2021/03/28 14:15:47;;;;;;;12.50;4.47;;;10.20;84.40;;;;;;4967794;28;20065;-52
2021/03/28 14:18:22;;;;;;;15.75;5.25;;;10.20;84.90;;;;;;4971313;28;20169;-53
2021/03/28 14:21:09;;;;;;;14.38;5.13;;;10.20;84.50;;;;;;4968338;28;20055;-51
2021/03/28 14:23:47;;;;;;;17.02;4.50;;;10.20;85.40;;;;;;4967997;28;20086;-52